UAL1923 KPWM-KEWR
Flight info
| Callsign | UAL1923 |
|---|---|
| Flight time | N/A |
| Altitude | 28000 |
| Route | HSKEL3 HANAA FLOSI4 |
| Aircraft | B738/M-V/N |
Departure
| Time | 2026-05-04 21:25 |
|---|---|
| Airport | Portland International Jetport (KPWM) |
Arrival
| Time | N/A |
|---|---|
| Airport | Newark Liberty International Airport (KEWR) |
| Time | Latitude | Longitude | Altitude | Speed | Heading |
|---|---|---|---|---|---|
| 2026-05-04 21:00 | 43.64675 | -70.31129 | 61 ft | 0 kts | 6° |
| 2026-05-04 21:18 | 43.64670 | -70.31130 | 61 ft | 3 kts | 6° |
| 2026-05-04 21:18 | 43.64651 | -70.31133 | 53 ft | 3 kts | 6° |
| 2026-05-04 21:18 | 43.64634 | -70.31141 | 54 ft | 3 kts | 59° |
| 2026-05-04 21:19 | 43.64632 | -70.31145 | 56 ft | 0 kts | 75° |
| 2026-05-04 21:21 | 43.64630 | -70.31139 | 56 ft | 2 kts | 100° |
| 2026-05-04 21:21 | 43.64622 | -70.31079 | 56 ft | 10 kts | 107° |
| 2026-05-04 21:21 | 43.64596 | -70.30949 | 58 ft | 19 kts | 101° |
| 2026-05-04 21:22 | 43.64569 | -70.30724 | 53 ft | 25 kts | 97° |
| 2026-05-04 21:22 | 43.64553 | -70.30464 | 58 ft | 29 kts | 95° |
| 2026-05-04 21:22 | 43.64532 | -70.30170 | 55 ft | 32 kts | 96° |
| 2026-05-04 21:22 | 43.64513 | -70.29962 | 48 ft | 9 kts | 108° |
| 2026-05-04 21:23 | 43.64506 | -70.29943 | 48 ft | 0 kts | 125° |
| 2026-05-04 21:23 | 43.64503 | -70.29939 | 48 ft | 0 kts | 127° |
| 2026-05-04 21:23 | 43.64503 | -70.29938 | 48 ft | 0 kts | 127° |
| 2026-05-04 21:23 | 43.64468 | -70.29913 | 47 ft | 10 kts | 169° |
| 2026-05-04 21:24 | 43.64418 | -70.29965 | 47 ft | 10 kts | 248° |
| 2026-05-04 21:24 | 43.64417 | -70.30089 | 50 ft | 34 kts | 275° |
| 2026-05-04 21:24 | 43.64468 | -70.30848 | 60 ft | 122 kts | 275° |
| 2026-05-04 21:24 | 43.64578 | -70.32324 | 273 ft | 179 kts | 278° |
| 2026-05-04 21:25 | 43.64842 | -70.34171 | 885 ft | 212 kts | 277° |
| 2026-05-04 21:25 | 43.64899 | -70.36376 | 1308 ft | 248 kts | 264° |
| 2026-05-04 21:25 | 43.64809 | -70.38799 | 1542 ft | 250 kts | 271° |
| 2026-05-04 21:25 | 43.65038 | -70.41119 | 1768 ft | 241 kts | 276° |
| 2026-05-04 21:26 | 43.65261 | -70.43462 | 1987 ft | 242 kts | 274° |
| 2026-05-04 21:26 | 43.65448 | -70.45714 | 2270 ft | 236 kts | 273° |
| 2026-05-04 21:26 | 43.65631 | -70.48040 | 2561 ft | 248 kts | 276° |
| 2026-05-04 21:26 | 43.66020 | -70.50393 | 2818 ft | 252 kts | 283° |
| 2026-05-04 21:27 | 43.66513 | -70.52684 | 3082 ft | 247 kts | 283° |
| 2026-05-04 21:27 | 43.67010 | -70.54963 | 3459 ft | 249 kts | 283° |
| 2026-05-04 21:27 | 43.67504 | -70.57264 | 3839 ft | 250 kts | 283° |
| 2026-05-04 21:27 | 43.67983 | -70.59531 | 4225 ft | 249 kts | 283° |
| 2026-05-04 21:28 | 43.68465 | -70.61840 | 4613 ft | 250 kts | 283° |
| 2026-05-04 21:28 | 43.68942 | -70.64143 | 4986 ft | 250 kts | 283° |
| 2026-05-04 21:28 | 43.69411 | -70.66467 | 5382 ft | 251 kts | 279° |
| 2026-05-04 21:28 | 43.69409 | -70.68848 | 5768 ft | 248 kts | 260° |
| 2026-05-04 21:29 | 43.69119 | -70.71200 | 6167 ft | 248 kts | 260° |
| 2026-05-04 21:29 | 43.68837 | -70.73560 | 6529 ft | 249 kts | 261° |
| 2026-05-04 21:29 | 43.68562 | -70.75925 | 6906 ft | 250 kts | 261° |
| 2026-05-04 21:29 | 43.68291 | -70.78303 | 7276 ft | 251 kts | 261° |
| 2026-05-04 21:30 | 43.68023 | -70.80695 | 7655 ft | 253 kts | 261° |
| 2026-05-04 21:30 | 43.67753 | -70.83109 | 8041 ft | 256 kts | 261° |
| 2026-05-04 21:30 | 43.67483 | -70.85548 | 8426 ft | 258 kts | 262° |
| 2026-05-04 21:30 | 43.67211 | -70.88007 | 8829 ft | 260 kts | 262° |
| 2026-05-04 21:31 | 43.66666 | -70.92946 | 9633 ft | 263 kts | 262° |
| 2026-05-04 21:31 | 43.66390 | -70.95455 | 10001 ft | 264 kts | 262° |
| 2026-05-04 21:31 | 43.66111 | -70.97973 | 10366 ft | 266 kts | 262° |
| 2026-05-04 21:32 | 43.65830 | -71.00511 | 10747 ft | 268 kts | 262° |
| 2026-05-04 21:32 | 43.65546 | -71.03066 | 11125 ft | 270 kts | 262° |
| 2026-05-04 21:32 | 43.65240 | -71.05609 | 11506 ft | 273 kts | 260° |
| 2026-05-04 21:32 | 43.64838 | -71.08189 | 11895 ft | 276 kts | 259° |
| 2026-05-04 21:33 | 43.64405 | -71.10775 | 12283 ft | 278 kts | 258° |
| 2026-05-04 21:33 | 43.63961 | -71.13390 | 12682 ft | 281 kts | 259° |
| 2026-05-04 21:33 | 43.63514 | -71.16026 | 13084 ft | 284 kts | 259° |
| 2026-05-04 21:33 | 43.63064 | -71.18689 | 13483 ft | 286 kts | 259° |
| 2026-05-04 21:34 | 43.62612 | -71.21371 | 13871 ft | 288 kts | 259° |
| 2026-05-04 21:34 | 43.62156 | -71.24081 | 14220 ft | 291 kts | 259° |
| 2026-05-04 21:34 | 43.61696 | -71.26813 | 14595 ft | 293 kts | 259° |
| 2026-05-04 21:34 | 43.61233 | -71.29565 | 14967 ft | 295 kts | 259° |
| 2026-05-04 21:35 | 43.60769 | -71.32330 | 15341 ft | 297 kts | 259° |
| 2026-05-04 21:35 | 43.60299 | -71.35118 | 15730 ft | 300 kts | 259° |
| 2026-05-04 21:35 | 43.59818 | -71.37981 | 16145 ft | 313 kts | 259° |
| 2026-05-04 21:35 | 43.59317 | -71.40960 | 16541 ft | 324 kts | 259° |
| 2026-05-04 21:36 | 43.58798 | -71.44043 | 16966 ft | 335 kts | 259° |
| 2026-05-04 21:36 | 43.58260 | -71.47224 | 17378 ft | 345 kts | 259° |
| 2026-05-04 21:36 | 43.57714 | -71.50449 | 17805 ft | 354 kts | 259° |
| 2026-05-04 21:36 | 43.57147 | -71.53794 | 18209 ft | 363 kts | 259° |
| 2026-05-04 21:37 | 43.56565 | -71.57211 | 18581 ft | 370 kts | 258° |
| 2026-05-04 21:37 | 43.55969 | -71.60708 | 18953 ft | 377 kts | 258° |
| 2026-05-04 21:37 | 43.55363 | -71.64257 | 19319 ft | 383 kts | 258° |
| 2026-05-04 21:37 | 43.54746 | -71.67861 | 19701 ft | 386 kts | 259° |
| 2026-05-04 21:38 | 43.54146 | -71.71341 | 20033 ft | 360 kts | 259° |
| 2026-05-04 21:38 | 43.53575 | -71.74646 | 20404 ft | 347 kts | 258° |
| 2026-05-04 21:38 | 43.53042 | -71.77728 | 20747 ft | 323 kts | 259° |
| 2026-05-04 21:38 | 43.52528 | -71.80700 | 21113 ft | 312 kts | 259° |
| 2026-05-04 21:39 | 43.52020 | -71.83649 | 21530 ft | 321 kts | 259° |
| 2026-05-04 21:39 | 43.51501 | -71.86674 | 21939 ft | 329 kts | 259° |
| 2026-05-04 21:39 | 43.50965 | -71.89783 | 22368 ft | 337 kts | 259° |
| 2026-05-04 21:39 | 43.50416 | -71.92955 | 22785 ft | 344 kts | 259° |
| 2026-05-04 21:40 | 43.49852 | -71.96207 | 23066 ft | 354 kts | 259° |
| 2026-05-04 21:40 | 43.49279 | -71.99505 | 23360 ft | 363 kts | 258° |
| 2026-05-04 21:40 | 43.48683 | -72.02930 | 23605 ft | 371 kts | 258° |
| 2026-05-04 21:40 | 43.48070 | -72.06438 | 23778 ft | 381 kts | 258° |
| 2026-05-04 21:41 | 43.47441 | -72.10030 | 23957 ft | 390 kts | 258° |
| 2026-05-04 21:41 | 43.46796 | -72.13695 | 24129 ft | 398 kts | 258° |
| 2026-05-04 21:41 | 43.46138 | -72.17433 | 24304 ft | 405 kts | 258° |
| 2026-05-04 21:41 | 43.45467 | -72.21243 | 24488 ft | 412 kts | 258° |
| 2026-05-04 21:42 | 43.44785 | -72.25106 | 24660 ft | 418 kts | 258° |
| 2026-05-04 21:42 | 43.44093 | -72.29017 | 24856 ft | 423 kts | 259° |
| 2026-05-04 21:42 | 43.43399 | -72.32930 | 25027 ft | 429 kts | 259° |
| 2026-05-04 21:42 | 43.42685 | -72.36943 | 25200 ft | 433 kts | 259° |
| 2026-05-04 21:43 | 43.41965 | -72.40987 | 25397 ft | 437 kts | 259° |
| 2026-05-04 21:43 | 43.41236 | -72.45070 | 25570 ft | 440 kts | 259° |
| 2026-05-04 21:43 | 43.40501 | -72.49171 | 25747 ft | 442 kts | 259° |
| 2026-05-04 21:43 | 43.39763 | -72.53285 | 25926 ft | 442 kts | 259° |
| 2026-05-04 21:44 | 43.39043 | -72.57269 | 26063 ft | 416 kts | 259° |
| 2026-05-04 21:44 | 43.38353 | -72.61078 | 26235 ft | 411 kts | 259° |
| 2026-05-04 21:44 | 43.37660 | -72.64926 | 26417 ft | 409 kts | 259° |
| 2026-05-04 21:44 | 43.36985 | -72.68648 | 26580 ft | 397 kts | 259° |
| 2026-05-04 21:45 | 43.36317 | -72.72336 | 26763 ft | 398 kts | 259° |
| 2026-05-04 21:45 | 43.35648 | -72.76030 | 26950 ft | 400 kts | 259° |
| 2026-05-04 21:45 | 43.34984 | -72.79694 | 27137 ft | 401 kts | 259° |
| 2026-05-04 21:45 | 43.34307 | -72.83413 | 27323 ft | 402 kts | 259° |
| 2026-05-04 21:46 | 43.33628 | -72.87135 | 27515 ft | 402 kts | 259° |
| 2026-05-04 21:46 | 43.32946 | -72.90864 | 27703 ft | 403 kts | 259° |
| 2026-05-04 21:46 | 43.32260 | -72.94603 | 27879 ft | 403 kts | 259° |
| 2026-05-04 21:46 | 43.31575 | -72.98323 | 28050 ft | 401 kts | 259° |
| 2026-05-04 21:47 | 43.30891 | -73.02038 | 28054 ft | 400 kts | 259° |
| 2026-05-04 21:47 | 43.29756 | -73.08185 | 28070 ft | 400 kts | 260° |
| 2026-05-04 21:48 | 43.28383 | -73.15601 | 28082 ft | 402 kts | 259° |
| 2026-05-04 21:48 | 43.27001 | -73.23036 | 28097 ft | 402 kts | 259° |
| 2026-05-04 21:48 | 43.26317 | -73.26690 | 28082 ft | 391 kts | 259° |
| 2026-05-04 21:49 | 43.25641 | -73.30307 | 28091 ft | 391 kts | 260° |
| 2026-05-04 21:49 | 43.24298 | -73.37479 | 28097 ft | 390 kts | 260° |
| 2026-05-04 21:50 | 43.22942 | -73.44693 | 28094 ft | 390 kts | 260° |
| 2026-05-04 21:50 | 43.21585 | -73.51886 | 28083 ft | 390 kts | 260° |
| 2026-05-04 21:51 | 43.19628 | -73.58824 | 28109 ft | 403 kts | 237° |
| 2026-05-04 21:51 | 43.17630 | -73.61586 | 28116 ft | 414 kts | 223° |
| 2026-05-04 21:51 | 43.15127 | -73.63527 | 28098 ft | 413 kts | 207° |
| 2026-05-04 21:51 | 43.12576 | -73.65107 | 28077 ft | 393 kts | 220° |
| 2026-05-04 21:52 | 43.10589 | -73.67594 | 28120 ft | 387 kts | 239° |
| 2026-05-04 21:52 | 43.09280 | -73.70805 | 28128 ft | 386 kts | 252° |
| 2026-05-04 21:52 | 43.08337 | -73.74170 | 28085 ft | 371 kts | 256° |
| 2026-05-04 21:53 | 43.06652 | -73.80893 | 28097 ft | 387 kts | 256° |
| 2026-05-04 21:53 | 43.05794 | -73.84446 | 28129 ft | 398 kts | 257° |
| 2026-05-04 21:53 | 43.04928 | -73.88075 | 28104 ft | 402 kts | 257° |
| 2026-05-04 21:54 | 43.03220 | -73.95266 | 28093 ft | 393 kts | 257° |
| 2026-05-04 21:54 | 43.01527 | -74.02399 | 28095 ft | 396 kts | 257° |
| 2026-05-04 21:55 | 42.99833 | -74.09579 | 28112 ft | 398 kts | 257° |
| 2026-05-04 21:55 | 42.98136 | -74.16799 | 28105 ft | 400 kts | 257° |
| 2026-05-04 21:56 | 42.96452 | -74.23985 | 28099 ft | 399 kts | 257° |
| 2026-05-04 21:56 | 42.94766 | -74.31185 | 28094 ft | 393 kts | 256° |
| 2026-05-04 21:56 | 42.93590 | -74.34504 | 28077 ft | 390 kts | 239° |
| 2026-05-04 21:57 | 42.91635 | -74.37161 | 28104 ft | 409 kts | 220° |
| 2026-05-04 21:57 | 42.89020 | -74.38948 | 28116 ft | 434 kts | 202° |
| 2026-05-04 21:57 | 42.85979 | -74.39629 | 28119 ft | 452 kts | 184° |
| 2026-05-04 21:57 | 42.82880 | -74.39077 | 28097 ft | 447 kts | 166° |
| 2026-05-04 21:58 | 42.80075 | -74.37387 | 28112 ft | 439 kts | 152° |
| 2026-05-04 21:58 | 42.75075 | -74.33000 | 28123 ft | 427 kts | 148° |
| 2026-05-04 21:58 | 42.72578 | -74.30699 | 28137 ft | 440 kts | 147° |